createdAt,value
2022-11-30T00:00:31.812Z,55.53
2022-11-30T00:03:22.752Z,53.80
2022-11-30T00:06:15.142Z,64.47
2022-11-30T00:09:04.572Z,65.50
2022-11-30T00:11:53.873Z,62.80
2022-11-30T00:14:43.210Z,70.75
2022-11-30T00:17:32.559Z,56.80
2022-11-30T00:20:23.263Z,51.95
2022-11-30T00:23:12.786Z,56.35
2022-11-30T00:26:03.465Z,51.00
2022-11-30T00:28:52.764Z,51.63
2022-11-30T00:31:42.212Z,53.38
2022-11-30T00:34:31.492Z,55.08
2022-11-30T00:37:23.183Z,51.28
2022-11-30T00:40:14.281Z,50.13
2022-11-30T00:43:03.796Z,53.88
2022-11-30T00:45:53.126Z,57.40
2022-11-30T00:48:43.311Z,52.35
2022-11-30T00:51:32.619Z,53.38
2022-11-30T00:54:24.234Z,56.75
2022-11-30T00:57:13.562Z,53.22
2022-11-30T01:00:02.835Z,50.45
2022-11-30T01:02:55.781Z,45.58
2022-11-30T01:05:45.163Z,46.72
2022-11-30T01:08:34.943Z,46.88
2022-11-30T01:11:28.275Z,46.25
2022-11-30T01:14:17.530Z,44.53
2022-11-30T01:17:06.949Z,46.97
2022-11-30T01:19:56.306Z,52.63
2022-11-30T01:22:46.637Z,53.45
2022-11-30T01:25:38.008Z,56.88
2022-11-30T01:28:28.918Z,59.22
2022-11-30T01:31:19.177Z,56.05
2022-11-30T01:34:08.695Z,61.22
2022-11-30T01:36:58.062Z,60.67
2022-11-30T01:39:47.511Z,63.60
2022-11-30T01:42:38.093Z,60.42
2022-11-30T01:45:28.883Z,64.93
2022-11-30T01:48:18.255Z,62.13
2022-11-30T01:51:07.751Z,61.42
2022-11-30T01:53:57.091Z,62.58
2022-11-30T01:56:50.352Z,59.65
2022-11-30T01:59:39.949Z,62.83
2022-11-30T02:02:52.937Z,60.42
2022-11-30T02:05:42.883Z,55.67
2022-11-30T02:08:33.959Z,55.03
2022-11-30T02:11:24.800Z,52.92
2022-11-30T02:14:30.689Z,59.50
2022-11-30T02:17:29.618Z,55.70
2022-11-30T02:20:48.403Z,52.22
2022-11-30T02:24:07.737Z,52.13
2022-11-30T02:27:13.362Z,52.75
2022-11-30T02:30:08.604Z,58.97
2022-11-30T02:33:02.558Z,59.90
2022-11-30T02:35:55.552Z,63.58
2022-11-30T02:38:45.144Z,56.15
2022-11-30T02:41:39.785Z,61.83
2022-11-30T02:44:30.518Z,57.55
2022-11-30T02:47:29.362Z,62.35
2022-11-30T02:50:25.235Z,52.97
2022-11-30T02:53:14.734Z,62.15
2022-11-30T02:56:05.070Z,57.53
2022-11-30T02:58:54.546Z,54.95
2022-11-30T03:01:43.876Z,58.30
2022-11-30T03:04:34.624Z,57.05
2022-11-30T03:07:23.892Z,54.67
2022-11-30T03:10:13.494Z,56.15
2022-11-30T03:13:02.886Z,59.45
2022-11-30T03:15:52.338Z,59.78
2022-11-30T03:18:42.161Z,54.10
2022-11-30T03:21:33.084Z,56.08
2022-11-30T03:24:22.426Z,50.70
2022-11-30T03:27:11.818Z,55.03
2022-11-30T03:30:01.128Z,48.95
2022-11-30T03:32:52.029Z,39.63
2022-11-30T03:35:41.310Z,39.83
2022-11-30T03:38:32.427Z,38.40
2022-11-30T03:41:21.771Z,37.72
2022-11-30T03:44:12.019Z,46.80
2022-11-30T03:47:01.285Z,51.55
2022-11-30T03:49:50.551Z,86.68
2022-11-30T03:52:39.816Z,62.20
2022-11-30T03:55:30.474Z,29.42
2022-11-30T03:58:19.706Z,30.15
2022-11-30T04:01:12.438Z,42.40
2022-11-30T04:04:01.708Z,40.65
2022-11-30T04:06:51.073Z,43.20
2022-11-30T04:09:40.383Z,41.47
2022-11-30T04:12:31.315Z,47.55
2022-11-30T04:15:20.634Z,37.33
2022-11-30T04:18:09.908Z,46.47
2022-11-30T04:21:01.393Z,41.60
2022-11-30T04:23:50.659Z,39.33
2022-11-30T04:26:39.956Z,34.55
2022-11-30T04:29:30.584Z,41.58
2022-11-30T04:32:19.865Z,43.75
2022-11-30T04:35:11.500Z,41.38
2022-11-30T04:38:01.283Z,55.08
2022-11-30T04:40:50.571Z,43.38
2022-11-30T04:43:39.974Z,39.05
2022-11-30T04:46:30.770Z,30.63
2022-11-30T04:49:20.204Z,37.45
2022-11-30T04:52:09.438Z,47.80
2022-11-30T04:54:58.882Z,37.45
2022-11-30T04:57:48.515Z,42.00
2022-11-30T05:00:38.431Z,46.85
2022-11-30T05:03:29.254Z,44.08
2022-11-30T05:06:18.542Z,55.90
2022-11-30T05:09:07.846Z,61.92
2022-11-30T05:11:57.240Z,55.83
2022-11-30T05:14:46.905Z,50.97
2022-11-30T05:17:36.548Z,44.60
2022-11-30T05:20:27.228Z,47.22
2022-11-30T05:23:16.716Z,53.45
2022-11-30T05:26:06.482Z,47.80
2022-11-30T05:28:55.796Z,44.47
2022-11-30T05:31:45.132Z,38.75
2022-11-30T05:34:45.832Z,40.47
2022-11-30T05:37:41.072Z,47.97
2022-11-30T05:40:32.609Z,39.30
2022-11-30T05:43:21.915Z,46.40
2022-11-30T05:46:11.914Z,47.78
2022-11-30T05:49:01.417Z,67.78
2022-11-30T05:51:50.633Z,59.67
2022-11-30T05:54:41.390Z,49.22
2022-11-30T05:57:30.627Z,47.03
2022-11-30T06:00:21.846Z,42.30
2022-11-30T06:03:11.342Z,42.50
2022-11-30T06:06:00.754Z,45.15
2022-11-30T06:08:50.960Z,54.83
2022-11-30T06:11:41.754Z,37.45
2022-11-30T06:14:31.024Z,47.55
2022-11-30T06:17:20.272Z,34.58
2022-11-30T06:20:10.783Z,41.22
2022-11-30T06:23:00.185Z,36.47
2022-11-30T06:25:49.487Z,44.10
2022-11-30T06:28:45.348Z,62.70
2022-11-30T06:31:37.142Z,90.15
2022-11-30T06:34:26.358Z,40.28
2022-11-30T06:37:15.667Z,54.90
2022-11-30T06:40:07.286Z,54.00
2022-11-30T06:42:57.229Z,66.43
2022-11-30T06:45:48.431Z,67.38
2022-11-30T06:48:37.994Z,74.10
2022-11-30T06:51:27.369Z,58.85
2022-11-30T06:54:16.913Z,44.00
2022-11-30T06:57:06.350Z,32.78
2022-11-30T06:59:55.735Z,46.40
2022-11-30T07:02:46.430Z,39.10
2022-11-30T07:05:40.816Z,43.25
2022-11-30T07:08:30.081Z,43.90
2022-11-30T07:11:19.395Z,52.45
2022-11-30T07:14:08.783Z,49.00
2022-11-30T07:16:58.327Z,50.83
2022-11-30T07:19:49.113Z,48.03
2022-11-30T07:22:38.397Z,50.33
2022-11-30T07:25:44.840Z,47.20
2022-11-30T07:28:34.270Z,52.88
2022-11-30T07:31:26.455Z,49.90
2022-11-30T07:34:15.759Z,54.72
2022-11-30T07:37:06.370Z,38.60
2022-11-30T07:39:55.935Z,37.20
2022-11-30T07:42:45.188Z,30.33
2022-11-30T07:45:34.601Z,37.10
2022-11-30T07:48:24.349Z,40.00
2022-11-30T07:51:16.289Z,36.10
2022-11-30T07:54:07.629Z,38.20
2022-11-30T07:56:56.882Z,40.83
2022-11-30T07:59:46.507Z,39.92
2022-11-30T08:02:35.889Z,39.65
2022-11-30T08:05:25.221Z,40.33
2022-11-30T08:08:14.557Z,39.35
2022-11-30T08:11:06.489Z,39.60
2022-11-30T08:13:56.239Z,37.88
2022-11-30T08:16:45.545Z,40.17
2022-11-30T08:19:34.867Z,40.75
2022-11-30T08:22:24.198Z,44.95
2022-11-30T08:25:13.477Z,54.97
2022-11-30T08:28:04.385Z,41.50
2022-11-30T08:30:53.681Z,47.72
2022-11-30T08:33:43.480Z,50.15
2022-11-30T08:36:33.764Z,50.58
2022-11-30T08:39:23.250Z,63.25
2022-11-30T08:42:12.516Z,59.95
2022-11-30T08:45:03.501Z,94.38
2022-11-30T08:47:52.872Z,86.00
2022-11-30T08:50:42.365Z,82.07
2022-11-30T08:53:31.948Z,80.85
2022-11-30T08:56:23.939Z,86.05
2022-11-30T08:59:13.195Z,74.55
2022-11-30T09:02:04.166Z,72.70
2022-11-30T09:04:53.721Z,71.78
2022-11-30T09:07:43.014Z,63.47
2022-11-30T09:10:32.318Z,60.92
2022-11-30T09:13:21.665Z,57.83
2022-11-30T09:16:12.673Z,69.97
2022-11-30T09:19:03.611Z,71.32
2022-11-30T09:21:53.089Z,71.47
2022-11-30T09:24:42.734Z,70.75
2022-11-30T09:27:34.195Z,61.92
2022-11-30T09:30:23.960Z,61.33
2022-11-30T09:33:13.233Z,59.40
2022-11-30T09:36:06.246Z,61.03
2022-11-30T09:38:56.159Z,68.13
2022-11-30T09:42:39.599Z,61.97
2022-11-30T09:45:32.860Z,61.87
2022-11-30T09:48:43.215Z,56.45
2022-11-30T09:51:45.635Z,54.08
2022-11-30T09:54:40.537Z,31.57
2022-11-30T09:57:36.267Z,45.33
2022-11-30T10:00:26.794Z,39.78
2022-11-30T10:03:16.319Z,41.13
2022-11-30T10:06:11.274Z,37.33
2022-11-30T10:09:29.155Z,42.17
2022-11-30T10:12:26.581Z,31.60
2022-11-30T10:15:42.109Z,24.20
2022-11-30T10:18:42.391Z,26.42
2022-11-30T10:21:52.548Z,27.60
2022-11-30T10:25:08.624Z,30.85
2022-11-30T10:28:38.642Z,28.10
2022-11-30T10:31:21.272Z,32.28
2022-11-30T10:34:22.214Z,32.63
2022-11-30T10:37:18.603Z,38.15
2022-11-30T10:40:18.752Z,33.72
2022-11-30T10:43:20.331Z,35.75
2022-11-30T10:46:22.086Z,31.60
2022-11-30T10:49:20.631Z,31.10
2022-11-30T10:52:13.812Z,28.08
2022-11-30T10:58:03.840Z,31.88
2022-11-30T11:01:03.672Z,35.35
2022-11-30T11:04:15.833Z,28.13
2022-11-30T11:07:15.300Z,29.35
2022-11-30T11:10:05.253Z,26.77
2022-11-30T11:12:57.137Z,28.35
2022-11-30T11:16:00.007Z,29.70
2022-11-30T11:18:56.065Z,26.52
2022-11-30T11:21:49.414Z,23.95
2022-11-30T11:24:38.725Z,23.90
2022-11-30T11:27:31.947Z,21.65
2022-11-30T11:30:32.249Z,23.90
2022-11-30T11:33:25.050Z,29.42
2022-11-30T11:36:26.815Z,28.73
2022-11-30T11:39:28.316Z,29.08
2022-11-30T11:42:22.662Z,31.70
2022-11-30T11:45:19.400Z,31.77
2022-11-30T11:48:34.851Z,33.22
2022-11-30T11:51:32.937Z,30.48
2022-11-30T11:54:28.654Z,32.42
2022-11-30T11:57:21.241Z,36.05
2022-11-30T12:00:19.804Z,35.33
2022-11-30T12:03:20.852Z,37.10
2022-11-30T12:06:15.555Z,37.30
2022-11-30T12:09:13.771Z,34.88
2022-11-30T12:12:03.210Z,34.67
2022-11-30T12:14:52.530Z,34.33
2022-11-30T12:17:54.858Z,32.67
2022-11-30T12:20:55.875Z,36.03
2022-11-30T12:24:06.395Z,34.40
2022-11-30T12:27:04.312Z,34.03
2022-11-30T12:30:09.997Z,36.63
2022-11-30T12:33:27.625Z,32.47
2022-11-30T12:36:30.542Z,33.97
2022-11-30T12:39:31.424Z,29.88
2022-11-30T12:42:31.380Z,32.38
2022-11-30T12:45:30.279Z,32.33
2022-11-30T12:48:32.803Z,30.45
2022-11-30T12:51:34.133Z,26.95
2022-11-30T12:54:33.921Z,23.23
2022-11-30T12:57:28.378Z,22.67
2022-11-30T13:00:22.596Z,25.13
2022-11-30T13:03:48.045Z,23.27
2022-11-30T13:06:45.215Z,24.95
2022-11-30T13:09:39.618Z,24.63
2022-11-30T13:12:36.366Z,25.90
2022-11-30T13:15:29.538Z,20.83
2022-11-30T13:18:22.005Z,22.92
2022-11-30T13:21:23.047Z,24.52
2022-11-30T13:24:22.656Z,25.05
2022-11-30T13:27:21.373Z,27.80
2022-11-30T13:30:28.227Z,31.73
2022-11-30T13:33:50.283Z,34.30
2022-11-30T13:36:41.417Z,32.33
2022-11-30T13:39:45.839Z,37.67
2022-11-30T13:42:44.980Z,22.83
2022-11-30T13:45:38.759Z,33.80
2022-11-30T13:48:34.997Z,19.67
2022-11-30T13:51:39.758Z,21.23
2022-11-30T13:54:42.403Z,19.27
2022-11-30T13:58:10.354Z,44.88
2022-11-30T14:01:28.309Z,18.40
2022-11-30T14:04:34.587Z,20.13
2022-11-30T14:07:37.944Z,20.58
2022-11-30T14:13:32.675Z,18.48
2022-11-30T14:16:27.480Z,21.35
2022-11-30T14:19:17.059Z,19.90
2022-11-30T14:22:12.072Z,21.77
2022-11-30T14:25:02.801Z,21.85
2022-11-30T14:27:59.016Z,20.92
2022-11-30T14:30:49.775Z,21.88
2022-11-30T14:33:49.598Z,23.73
2022-11-30T14:36:46.368Z,22.17
2022-11-30T14:39:39.137Z,22.08
2022-11-30T14:42:31.150Z,23.38
2022-11-30T14:45:25.607Z,22.60
2022-11-30T14:48:17.898Z,23.83
2022-11-30T14:51:07.430Z,24.48
2022-11-30T14:54:06.497Z,24.30
2022-11-30T14:57:03.920Z,24.08
2022-11-30T14:59:55.514Z,23.98
2022-11-30T15:02:47.056Z,23.60
2022-11-30T15:05:36.768Z,24.27
2022-11-30T15:08:33.945Z,23.42
2022-11-30T15:11:24.101Z,26.02
2022-11-30T15:14:13.633Z,26.02
2022-11-30T15:17:02.976Z,28.58
2022-11-30T15:19:54.547Z,28.55
2022-11-30T15:22:43.793Z,30.50
2022-11-30T15:25:39.352Z,33.38
2022-11-30T15:28:35.243Z,36.13
2022-11-30T15:31:25.620Z,36.28
2022-11-30T15:34:21.745Z,44.92
2022-11-30T15:37:12.858Z,119.25
2022-11-30T15:40:07.256Z,85.80
2022-11-30T15:42:56.936Z,77.05
2022-11-30T15:45:55.923Z,82.32
2022-11-30T15:48:49.127Z,76.82
2022-11-30T15:54:48.304Z,42.75
2022-11-30T15:58:00.834Z,51.08
2022-11-30T16:01:14.539Z,39.22
2022-11-30T16:04:08.103Z,43.90
2022-11-30T16:06:57.690Z,57.70
2022-11-30T16:09:48.600Z,80.47
2022-11-30T16:12:38.295Z,73.43
2022-11-30T16:15:30.637Z,74.15
2022-11-30T16:18:24.473Z,78.43
2022-11-30T16:21:17.038Z,78.55
2022-11-30T16:24:07.390Z,88.50
2022-11-30T16:26:58.045Z,65.13
2022-11-30T16:29:52.297Z,51.50
2022-11-30T16:32:41.888Z,41.70
2022-11-30T16:35:38.552Z,45.38
2022-11-30T16:38:28.986Z,49.15
2022-11-30T16:41:21.241Z,64.82
2022-11-30T16:44:15.229Z,49.17
2022-11-30T16:47:04.472Z,39.92
2022-11-30T16:49:53.877Z,52.40
2022-11-30T16:52:44.564Z,43.53
2022-11-30T16:55:37.902Z,70.78
2022-11-30T16:58:27.237Z,80.90
2022-11-30T17:01:22.636Z,51.25
2022-11-30T17:04:17.936Z,45.80
2022-11-30T17:07:07.273Z,39.83
2022-11-30T17:09:56.868Z,42.42
2022-11-30T17:12:46.266Z,45.05
2022-11-30T17:15:35.584Z,48.72
2022-11-30T17:18:26.364Z,48.25
2022-11-30T17:21:20.573Z,48.25
2022-11-30T17:24:10.207Z,47.20
2022-11-30T17:27:00.048Z,48.90
2022-11-30T17:29:49.436Z,89.55
2022-11-30T17:32:38.703Z,72.18
2022-11-30T17:35:29.354Z,65.97
2022-11-30T17:38:18.881Z,79.40
2022-11-30T17:41:12.992Z,77.10
2022-11-30T17:44:05.065Z,89.13
2022-11-30T17:46:54.396Z,87.10
2022-11-30T17:49:43.974Z,75.63
2022-11-30T17:52:34.889Z,79.22
2022-11-30T17:55:24.168Z,68.55
2022-11-30T17:58:13.462Z,62.42
2022-11-30T18:01:02.838Z,64.72
2022-11-30T18:03:53.127Z,56.83
2022-11-30T18:06:42.639Z,59.47
2022-11-30T18:09:37.965Z,59.55
2022-11-30T18:12:30.258Z,62.95
2022-11-30T18:15:19.948Z,75.03
2022-11-30T18:18:09.236Z,65.93
2022-11-30T18:21:05.635Z,71.88
2022-11-30T18:23:55.276Z,84.20
2022-11-30T18:26:46.007Z,103.07
2022-11-30T18:29:35.409Z,101.45
2022-11-30T18:32:24.671Z,116.43
2022-11-30T18:35:13.989Z,91.72
2022-11-30T18:38:03.236Z,93.63
2022-11-30T18:40:52.754Z,93.72
2022-11-30T18:43:43.429Z,91.75
2022-11-30T18:46:32.774Z,96.30
2022-11-30T18:49:23.654Z,104.95
2022-11-30T18:52:12.895Z,91.65
2022-11-30T18:55:02.144Z,79.75
2022-11-30T18:57:51.724Z,83.05
2022-11-30T19:00:42.541Z,89.50
2022-11-30T19:03:31.823Z,93.32
2022-11-30T19:06:21.518Z,101.03
2022-11-30T19:09:15.033Z,75.30
2022-11-30T19:12:04.416Z,73.60
2022-11-30T19:14:54.254Z,79.53
2022-11-30T19:17:44.893Z,74.82
2022-11-30T19:20:40.342Z,74.28
2022-11-30T19:23:29.796Z,76.93
2022-11-30T19:26:19.393Z,76.53
2022-11-30T19:29:09.411Z,85.68
2022-11-30T19:31:58.764Z,88.45
2022-11-30T19:34:50.106Z,92.45
2022-11-30T19:37:40.245Z,108.05
2022-11-30T19:40:29.619Z,113.38
2022-11-30T19:43:18.953Z,121.45
2022-11-30T19:46:10.000Z,135.55
2022-11-30T19:49:01.986Z,136.98
2022-11-30T19:51:52.814Z,137.90
2022-11-30T19:54:42.197Z,131.98
2022-11-30T19:57:31.774Z,133.20
2022-11-30T20:00:21.810Z,131.05
2022-11-30T20:03:12.149Z,126.90
2022-11-30T20:06:01.613Z,118.07
2022-11-30T20:08:52.638Z,114.40
2022-11-30T20:11:42.133Z,116.57
2022-11-30T20:14:31.464Z,120.40
2022-11-30T20:17:20.759Z,133.13
2022-11-30T20:20:11.931Z,140.65
2022-11-30T20:23:01.303Z,143.45
2022-11-30T20:25:51.993Z,147.68
2022-11-30T20:28:41.879Z,141.40
2022-11-30T20:31:34.513Z,134.93
2022-11-30T20:34:27.479Z,136.82
2022-11-30T20:37:20.714Z,138.18
2022-11-30T20:40:12.315Z,145.88
2022-11-30T20:43:03.038Z,145.57
2022-11-30T20:45:52.423Z,146.25
2022-11-30T20:48:41.936Z,156.77
2022-11-30T20:51:33.653Z,176.48
2022-11-30T20:54:23.445Z,175.88
2022-11-30T20:57:12.734Z,167.15
2022-11-30T21:00:08.809Z,168.32
2022-11-30T21:03:01.132Z,173.52
2022-11-30T21:05:51.240Z,188.35
2022-11-30T21:08:42.481Z,189.52
2022-11-30T21:11:32.716Z,169.93
2022-11-30T21:14:22.256Z,169.02
2022-11-30T21:17:13.001Z,175.65
2022-11-30T21:20:02.285Z,193.27
2022-11-30T21:22:53.846Z,183.35
2022-11-30T21:25:45.790Z,183.25
2022-11-30T21:28:38.272Z,183.20
2022-11-30T21:31:27.957Z,152.48
2022-11-30T21:34:18.704Z,163.70
2022-11-30T21:37:07.967Z,152.02
2022-11-30T21:39:57.294Z,146.18
2022-11-30T21:42:46.568Z,148.50
2022-11-30T21:45:36.356Z,152.50
2022-11-30T21:48:25.689Z,142.32
2022-11-30T21:51:21.679Z,153.52
2022-11-30T21:54:14.362Z,164.38
2022-11-30T21:57:03.788Z,154.60
2022-11-30T21:59:53.329Z,158.90
2022-11-30T22:02:42.742Z,142.50
2022-11-30T22:05:32.095Z,151.75
2022-11-30T22:08:22.846Z,186.50
2022-11-30T22:11:14.572Z,187.20
2022-11-30T22:14:04.945Z,162.93
2022-11-30T22:16:54.423Z,157.27
2022-11-30T22:19:43.850Z,156.00
2022-11-30T22:22:33.380Z,158.48
2022-11-30T22:25:24.612Z,155.30
2022-11-30T22:28:14.174Z,166.15
2022-11-30T22:31:05.043Z,161.32
2022-11-30T22:33:54.658Z,173.20
2022-11-30T22:36:45.501Z,135.27
2022-11-30T22:39:34.887Z,150.95
2022-11-30T22:42:25.545Z,155.95
2022-11-30T22:45:14.818Z,138.63
2022-11-30T22:48:04.106Z,134.82
2022-11-30T22:50:53.345Z,126.45
2022-11-30T22:53:44.223Z,119.55
2022-11-30T22:56:35.549Z,118.82
2022-11-30T22:59:26.710Z,114.22
2022-11-30T23:02:16.085Z,128.05
2022-11-30T23:05:06.367Z,121.30
2022-11-30T23:07:56.105Z,117.60
2022-11-30T23:10:45.602Z,128.25
2022-11-30T23:13:35.441Z,121.22
2022-11-30T23:16:26.320Z,125.75
2022-11-30T23:19:16.465Z,181.15
2022-11-30T23:22:05.884Z,147.30
2022-11-30T23:24:56.089Z,135.25
2022-11-30T23:27:45.783Z,281.33
2022-11-30T23:30:35.200Z,189.55
2022-11-30T23:33:26.407Z,157.05
2022-11-30T23:36:18.506Z,168.70
2022-11-30T23:39:10.816Z,151.93
2022-11-30T23:42:00.034Z,153.37
2022-11-30T23:44:49.360Z,152.45
2022-11-30T23:47:38.627Z,148.55
2022-11-30T23:50:29.805Z,156.05
2022-11-30T23:53:19.196Z,144.88
2022-11-30T23:56:10.798Z,143.80
2022-11-30T23:59:00.331Z,153.02
